createdAt,value
2019-05-26T00:00:56.637Z,1000.36
2019-05-26T00:01:56.653Z,1000.38
2019-05-26T00:02:56.603Z,1000.37
2019-05-26T00:03:56.628Z,1000.41
2019-05-26T00:04:56.628Z,1000.35
2019-05-26T00:05:56.590Z,1000.36
2019-05-26T00:06:57.823Z,1000.35
2019-05-26T00:07:56.629Z,1000.38
2019-05-26T00:08:56.577Z,1000.37
2019-05-26T00:09:56.579Z,1000.37
2019-05-26T00:10:56.511Z,1000.37
2019-05-26T00:11:56.566Z,1000.35
2019-05-26T00:12:56.529Z,1000.38
2019-05-26T00:13:56.509Z,1000.35
2019-05-26T00:14:56.489Z,1000.37
2019-05-26T00:15:56.749Z,1000.37
2019-05-26T00:16:56.479Z,1000.37
2019-05-26T00:17:56.486Z,1000.38
2019-05-26T00:18:56.442Z,1000.38
2019-05-26T00:19:56.502Z,1000.39
2019-05-26T00:20:56.427Z,1000.37
2019-05-26T00:21:56.425Z,1000.37
2019-05-26T00:22:56.390Z,1000.37
2019-05-26T00:23:56.613Z,1000.33
2019-05-26T00:24:56.414Z,1000.36
2019-05-26T00:25:56.380Z,1000.36
2019-05-26T00:26:56.374Z,1000.36
2019-05-26T00:27:56.368Z,1000.35
2019-05-26T00:28:56.338Z,1000.36
2019-05-26T00:29:56.370Z,1000.33
2019-05-26T00:30:56.279Z,1000.31
2019-05-26T00:31:56.353Z,1000.28
2019-05-26T00:32:56.296Z,1000.25
2019-05-26T00:33:56.314Z,1000.27
2019-05-26T00:34:56.287Z,1000.28
2019-05-26T00:35:56.274Z,1000.23
2019-05-26T00:36:56.231Z,1000.25
2019-05-26T00:37:56.270Z,1000.23
2019-05-26T00:38:56.230Z,1000.21
2019-05-26T00:39:56.217Z,1000.22
2019-05-26T00:40:56.226Z,1000.18
2019-05-26T00:41:56.200Z,1000.19
2019-05-26T00:42:56.234Z,1000.16
2019-05-26T00:43:56.188Z,1000.18
2019-05-26T00:44:56.162Z,1000.19
2019-05-26T00:45:56.135Z,1000.17
2019-05-26T00:46:56.146Z,1000.12
2019-05-26T00:47:56.138Z,1000.14
2019-05-26T00:48:56.137Z,1000.14
2019-05-26T00:49:56.147Z,1000.17
2019-05-26T00:50:56.181Z,1000.15
2019-05-26T00:51:56.106Z,1000.13
2019-05-26T00:52:56.884Z,1000.12
2019-05-26T00:53:56.117Z,1000.10
2019-05-26T00:54:56.067Z,1000.12
2019-05-26T00:55:56.066Z,1000.11
2019-05-26T00:56:56.996Z,1000.12
2019-05-26T00:57:56.018Z,1000.12
2019-05-26T00:58:56.055Z,1000.10
2019-05-26T00:59:56.038Z,1000.10
2019-05-26T01:00:56.043Z,1000.04
2019-05-26T01:01:56.025Z,1000.06
2019-05-26T01:02:55.974Z,1000.06
2019-05-26T01:03:55.953Z,1000.06
2019-05-26T01:04:55.986Z,1000.06
2019-05-26T01:05:55.956Z,1000.06
2019-05-26T01:06:55.930Z,1000.06
2019-05-26T01:08:05.858Z,1000.06
2019-05-26T01:08:56.908Z,1000.03
2019-05-26T01:09:55.926Z,1000.05
2019-05-26T01:10:55.909Z,1000.02
2019-05-26T01:11:55.848Z,1000.02
2019-05-26T01:12:55.886Z,999.98
2019-05-26T01:13:55.886Z,999.97
2019-05-26T01:14:55.846Z,1000.00
2019-05-26T01:15:55.837Z,999.98
2019-05-26T01:16:56.307Z,999.97
2019-05-26T01:17:55.823Z,999.94
2019-05-26T01:18:55.802Z,999.99
2019-05-26T01:19:55.775Z,999.98
2019-05-26T01:20:55.803Z,999.96
2019-05-26T01:21:55.765Z,999.92
2019-05-26T01:22:55.764Z,999.94
2019-05-26T01:23:55.734Z,999.91
2019-05-26T01:24:55.726Z,999.93
2019-05-26T01:25:55.765Z,999.91
2019-05-26T01:26:55.743Z,999.92
2019-05-26T01:27:55.714Z,999.94
2019-05-26T01:28:55.725Z,999.98
2019-05-26T01:29:55.686Z,999.96
2019-05-26T01:30:55.714Z,999.96
2019-05-26T01:31:55.643Z,999.94
2019-05-26T01:32:55.650Z,999.96
2019-05-26T01:33:55.654Z,999.98
2019-05-26T01:34:55.665Z,999.95
2019-05-26T01:35:55.623Z,999.97
2019-05-26T01:36:55.636Z,999.96
2019-05-26T01:37:55.612Z,999.95
2019-05-26T01:38:55.599Z,999.89
2019-05-26T01:39:55.556Z,999.92
2019-05-26T01:40:55.610Z,999.89
2019-05-26T01:41:55.560Z,999.91
2019-05-26T01:42:55.522Z,999.93
2019-05-26T01:43:55.541Z,999.93
2019-05-26T01:44:55.483Z,999.91
2019-05-26T01:45:55.503Z,999.86
2019-05-26T01:46:55.523Z,999.88
2019-05-26T01:47:55.525Z,999.89
2019-05-26T01:48:55.453Z,999.89
2019-05-26T01:49:55.453Z,999.90
2019-05-26T01:50:55.462Z,999.89
2019-05-26T01:51:55.466Z,999.83
2019-05-26T01:52:55.434Z,999.82
2019-05-26T01:53:55.452Z,999.82
2019-05-26T01:54:55.421Z,999.80
2019-05-26T01:55:55.400Z,999.82
2019-05-26T01:56:55.393Z,999.77
2019-05-26T01:57:55.385Z,999.73
2019-05-26T01:58:55.417Z,999.78
2019-05-26T01:59:55.374Z,999.79
2019-05-26T02:00:55.355Z,999.77
2019-05-26T02:01:58.524Z,999.79
2019-05-26T02:02:55.399Z,999.74
2019-05-26T02:03:55.313Z,999.82
2019-05-26T02:04:55.366Z,999.80
2019-05-26T02:05:55.364Z,999.78
2019-05-26T02:06:55.313Z,999.74
2019-05-26T02:07:55.289Z,999.74
2019-05-26T02:08:55.252Z,999.77
2019-05-26T02:09:55.249Z,999.77
2019-05-26T02:10:55.262Z,999.80
2019-05-26T02:11:55.257Z,999.86
2019-05-26T02:12:55.213Z,999.85
2019-05-26T02:13:55.282Z,999.82
2019-05-26T02:14:55.228Z,999.81
2019-05-26T02:15:55.181Z,999.86
2019-05-26T02:16:55.191Z,999.85
2019-05-26T02:17:55.164Z,999.79
2019-05-26T02:18:55.221Z,999.84
2019-05-26T02:19:55.162Z,999.78
2019-05-26T02:20:55.188Z,999.83
2019-05-26T02:21:55.128Z,999.83
2019-05-26T02:22:55.099Z,999.87
2019-05-26T02:23:55.144Z,999.84
2019-05-26T02:24:55.124Z,999.79
2019-05-26T02:25:55.081Z,999.85
2019-05-26T02:26:55.071Z,999.86
2019-05-26T02:27:55.050Z,999.84
2019-05-26T02:28:55.039Z,999.83
2019-05-26T02:29:55.055Z,999.82
2019-05-26T02:30:55.040Z,999.79
2019-05-26T02:31:54.996Z,999.80
2019-05-26T02:32:55.033Z,999.81
2019-05-26T02:33:54.991Z,999.80
2019-05-26T02:34:55.138Z,999.78
2019-05-26T02:35:55.060Z,999.82
2019-05-26T02:36:55.049Z,999.79
2019-05-26T02:37:54.945Z,999.81
2019-05-26T02:39:02.792Z,999.73
2019-05-26T02:39:55.961Z,999.75
2019-05-26T02:40:54.999Z,999.71
2019-05-26T02:41:54.897Z,999.73
2019-05-26T02:42:54.883Z,999.74
2019-05-26T02:43:54.873Z,999.75
2019-05-26T02:44:59.150Z,999.76
2019-05-26T02:45:54.897Z,999.73
2019-05-26T02:46:54.841Z,999.71
2019-05-26T02:47:54.905Z,999.69
2019-05-26T02:48:54.860Z,999.68
2019-05-26T02:49:54.821Z,999.71
2019-05-26T02:50:54.841Z,999.70
2019-05-26T02:51:54.828Z,999.64
2019-05-26T02:52:54.833Z,999.64
2019-05-26T02:53:54.807Z,999.60
2019-05-26T02:54:54.805Z,999.63
2019-05-26T02:55:54.767Z,999.56
2019-05-26T02:56:54.761Z,999.60
2019-05-26T02:57:54.757Z,999.62
2019-05-26T02:58:54.742Z,999.60
2019-05-26T02:59:54.727Z,999.60
2019-05-26T03:00:54.718Z,999.56
2019-05-26T03:02:03.348Z,999.57
2019-05-26T03:02:55.753Z,999.57
2019-05-26T03:03:54.679Z,999.57
2019-05-26T03:04:54.680Z,999.54
2019-05-26T03:05:54.673Z,999.61
2019-05-26T03:06:54.730Z,999.62
2019-05-26T03:07:54.701Z,999.61
2019-05-26T03:08:54.671Z,999.62
2019-05-26T03:09:54.738Z,999.60
2019-05-26T03:10:54.616Z,999.56
2019-05-26T03:11:54.584Z,999.62
2019-05-26T03:12:54.557Z,999.59
2019-05-26T03:13:54.650Z,999.57
2019-05-26T03:14:54.562Z,999.60
2019-05-26T03:15:54.581Z,999.61
2019-05-26T03:16:55.854Z,999.62
2019-05-26T03:17:55.798Z,999.63
2019-05-26T03:18:54.591Z,999.59
2019-05-26T03:19:54.593Z,999.60
2019-05-26T03:20:54.533Z,999.59
2019-05-26T03:21:54.508Z,999.55
2019-05-26T03:22:54.498Z,999.54
2019-05-26T03:23:54.484Z,999.54
2019-05-26T03:24:54.448Z,999.51
2019-05-26T03:25:54.460Z,999.50
2019-05-26T03:26:54.405Z,999.49
2019-05-26T03:27:54.470Z,999.49
2019-05-26T03:28:54.436Z,999.52
2019-05-26T03:29:54.393Z,999.52
2019-05-26T03:30:56.528Z,999.48
2019-05-26T03:31:54.544Z,999.49
2019-05-26T03:32:54.755Z,999.48
2019-05-26T03:33:54.410Z,999.47
2019-05-26T03:34:54.343Z,999.48
2019-05-26T03:35:54.428Z,999.58
2019-05-26T03:36:54.406Z,999.58
2019-05-26T03:37:54.400Z,999.56
2019-05-26T03:38:54.599Z,999.57
2019-05-26T03:39:54.436Z,999.55
2019-05-26T03:40:54.332Z,999.62
2019-05-26T03:41:54.240Z,999.56
2019-05-26T03:42:54.267Z,999.56
2019-05-26T03:44:10.183Z,999.60
2019-05-26T03:44:56.283Z,999.62
2019-05-26T03:45:54.775Z,999.62
2019-05-26T03:46:56.513Z,999.66
2019-05-26T03:47:54.243Z,999.62
2019-05-26T03:48:54.766Z,999.69
2019-05-26T03:49:54.732Z,999.68
2019-05-26T03:50:54.241Z,999.64
2019-05-26T03:51:54.479Z,999.68
2019-05-26T03:52:54.194Z,999.64
2019-05-26T03:53:54.136Z,999.64
2019-05-26T03:54:54.174Z,999.62
2019-05-26T03:55:54.137Z,999.61
2019-05-26T03:56:54.116Z,999.59
2019-05-26T03:57:54.121Z,999.62
2019-05-26T03:58:54.373Z,999.62
2019-05-26T03:59:54.423Z,999.62
2019-05-26T04:00:54.324Z,999.65
2019-05-26T04:01:57.638Z,999.66
2019-05-26T04:02:54.076Z,999.68
2019-05-26T04:03:54.122Z,999.72
2019-05-26T04:04:54.015Z,999.70
2019-05-26T04:05:54.018Z,999.69
2019-05-26T04:06:54.028Z,999.70
2019-05-26T04:07:54.017Z,999.60
2019-05-26T04:08:53.978Z,999.67
2019-05-26T04:10:04.892Z,999.67
2019-05-26T04:10:54.935Z,999.70
2019-05-26T04:11:53.922Z,999.73
2019-05-26T04:12:53.908Z,999.66
2019-05-26T04:13:53.926Z,999.64
2019-05-26T04:14:53.949Z,999.68
2019-05-26T04:15:54.154Z,999.65
2019-05-26T04:16:56.376Z,999.66
2019-05-26T04:17:54.373Z,999.67
2019-05-26T04:18:54.702Z,999.65
2019-05-26T04:19:53.875Z,999.71
2019-05-26T04:20:53.807Z,999.67
2019-05-26T04:21:53.832Z,999.65
2019-05-26T04:22:53.993Z,999.61
2019-05-26T04:23:53.999Z,999.61
2019-05-26T04:24:54.202Z,999.63
2019-05-26T04:25:53.845Z,999.61
2019-05-26T04:26:55.146Z,999.57
2019-05-26T04:27:54.296Z,999.60
2019-05-26T04:28:53.797Z,999.61
2019-05-26T04:29:53.753Z,999.62
2019-05-26T04:30:53.721Z,999.59
2019-05-26T04:31:53.703Z,999.61
2019-05-26T04:32:53.705Z,999.60
2019-05-26T04:33:53.691Z,999.60
2019-05-26T04:34:53.801Z,999.56
2019-05-26T04:35:54.899Z,999.59
2019-05-26T04:36:53.797Z,999.54
2019-05-26T04:37:53.741Z,999.60
2019-05-26T04:38:53.714Z,999.59
2019-05-26T04:39:53.674Z,999.56
2019-05-26T04:40:53.660Z,999.54
2019-05-26T04:41:53.609Z,999.56
2019-05-26T04:42:53.745Z,999.57
2019-05-26T04:43:54.324Z,999.53
2019-05-26T04:44:53.580Z,999.54
2019-05-26T04:45:53.704Z,999.48
2019-05-26T04:46:53.569Z,999.57
2019-05-26T04:47:53.513Z,999.54
2019-05-26T04:48:53.534Z,999.52
2019-05-26T04:49:53.553Z,999.48
2019-05-26T04:50:53.513Z,999.51
2019-05-26T04:51:53.473Z,999.50
2019-05-26T04:53:05.472Z,999.51
2019-05-26T04:53:54.485Z,999.49
2019-05-26T04:54:53.814Z,999.47
2019-05-26T04:55:53.432Z,999.46
2019-05-26T04:56:53.481Z,999.42
2019-05-26T04:57:53.411Z,999.46
2019-05-26T04:58:54.370Z,999.45
2019-05-26T04:59:54.270Z,999.48
2019-05-26T05:00:54.016Z,999.45
2019-05-26T05:01:54.668Z,999.47
2019-05-26T05:02:53.398Z,999.50
2019-05-26T05:03:53.422Z,999.45
2019-05-26T05:04:53.345Z,999.52
2019-05-26T05:05:53.576Z,999.43
2019-05-26T05:06:53.333Z,999.46
2019-05-26T05:07:53.378Z,999.44
2019-05-26T05:08:53.384Z,999.47
2019-05-26T05:09:53.272Z,999.51
2019-05-26T05:10:53.302Z,999.46
2019-05-26T05:11:53.271Z,999.45
2019-05-26T05:12:53.343Z,999.48
2019-05-26T05:13:53.272Z,999.48
2019-05-26T05:14:53.258Z,999.50
2019-05-26T05:15:53.200Z,999.48
2019-05-26T05:16:53.195Z,999.49
2019-05-26T05:17:53.184Z,999.40
2019-05-26T05:18:53.171Z,999.38
2019-05-26T05:19:53.169Z,999.36
2019-05-26T05:20:53.148Z,999.35
2019-05-26T05:21:53.163Z,999.40
2019-05-26T05:22:53.171Z,999.36
2019-05-26T05:23:53.123Z,999.42
2019-05-26T05:24:53.091Z,999.41
2019-05-26T05:25:53.119Z,999.32
2019-05-26T05:26:53.409Z,999.37
2019-05-26T05:27:53.081Z,999.37
2019-05-26T05:28:53.053Z,999.31
2019-05-26T05:29:53.048Z,999.33
2019-05-26T05:30:53.040Z,999.31
2019-05-26T05:31:53.038Z,999.30
2019-05-26T05:32:53.040Z,999.27
2019-05-26T05:33:53.009Z,999.21
2019-05-26T05:34:52.988Z,999.26
2019-05-26T05:35:53.007Z,999.26
2019-05-26T05:36:52.979Z,999.26
2019-05-26T05:37:52.961Z,999.29
2019-05-26T05:38:52.971Z,999.28
2019-05-26T05:39:52.932Z,999.28
2019-05-26T05:40:59.422Z,999.34
2019-05-26T05:41:54.756Z,999.32
2019-05-26T05:42:52.939Z,999.36
2019-05-26T05:43:52.918Z,999.33
2019-05-26T05:44:52.899Z,999.36
2019-05-26T05:45:52.891Z,999.35
2019-05-26T05:46:52.861Z,999.30
2019-05-26T05:47:52.882Z,999.32
2019-05-26T05:48:52.837Z,999.35
2019-05-26T05:49:52.849Z,999.34
2019-05-26T05:50:52.818Z,999.33
2019-05-26T05:51:52.809Z,999.30
2019-05-26T05:52:52.807Z,999.32
2019-05-26T05:53:52.835Z,999.31
2019-05-26T05:54:52.787Z,999.33
2019-05-26T05:55:52.770Z,999.32
2019-05-26T05:56:55.654Z,999.29
2019-05-26T05:57:52.741Z,999.25
2019-05-26T05:58:52.741Z,999.28
2019-05-26T05:59:52.760Z,999.28
2019-05-26T06:00:52.731Z,999.26
2019-05-26T06:01:52.731Z,999.27
2019-05-26T06:02:52.708Z,999.29
2019-05-26T06:03:52.701Z,999.25
2019-05-26T06:04:52.695Z,999.28
2019-05-26T06:05:52.663Z,999.31
2019-05-26T06:06:52.645Z,999.30
2019-05-26T06:07:52.646Z,999.32
2019-05-26T06:08:52.621Z,999.31
2019-05-26T06:09:52.702Z,999.33
2019-05-26T06:10:52.598Z,999.36
2019-05-26T06:11:56.721Z,999.33
2019-05-26T06:12:52.575Z,999.34
2019-05-26T06:13:52.581Z,999.31
2019-05-26T06:14:52.690Z,999.30
2019-05-26T06:15:52.581Z,999.29
2019-05-26T06:16:52.541Z,999.30
2019-05-26T06:17:52.517Z,999.26
2019-05-26T06:18:52.521Z,999.30
2019-05-26T06:19:52.497Z,999.31
2019-05-26T06:20:52.499Z,999.27
2019-05-26T06:21:52.510Z,999.30
2019-05-26T06:22:52.475Z,999.29
2019-05-26T06:23:52.472Z,999.21
2019-05-26T06:24:52.479Z,999.24
2019-05-26T06:25:52.442Z,999.26
2019-05-26T06:26:52.427Z,999.26
2019-05-26T06:27:52.439Z,999.30
2019-05-26T06:28:52.825Z,999.31
2019-05-26T06:29:59.027Z,999.26
2019-05-26T06:30:53.391Z,999.25
2019-05-26T06:31:52.579Z,999.24
2019-05-26T06:32:52.386Z,999.27
2019-05-26T06:33:52.368Z,999.26
2019-05-26T06:34:52.354Z,999.21
2019-05-26T06:35:52.328Z,999.21
2019-05-26T06:36:52.329Z,999.24
2019-05-26T06:37:52.327Z,999.23
2019-05-26T06:38:52.304Z,999.24
2019-05-26T06:39:52.286Z,999.23
2019-05-26T06:40:52.288Z,999.28
2019-05-26T06:41:52.269Z,999.27
2019-05-26T06:42:52.279Z,999.24
2019-05-26T06:43:52.247Z,999.24
2019-05-26T06:44:53.949Z,999.24
2019-05-26T06:45:52.247Z,999.26
2019-05-26T06:46:52.248Z,999.26
2019-05-26T06:47:52.206Z,999.27
2019-05-26T06:48:52.198Z,999.25
2019-05-26T06:49:52.190Z,999.25
2019-05-26T06:50:52.169Z,999.22
2019-05-26T06:51:52.158Z,999.24
2019-05-26T06:52:52.185Z,999.16
2019-05-26T06:53:52.167Z,999.18
2019-05-26T06:54:52.125Z,999.16
2019-05-26T06:55:52.129Z,999.18
2019-05-26T06:56:52.119Z,999.20
2019-05-26T06:57:52.109Z,999.24
2019-05-26T06:58:52.110Z,999.22
2019-05-26T06:59:52.075Z,999.23
2019-05-26T07:00:52.089Z,999.17
2019-05-26T07:01:52.075Z,999.22
2019-05-26T07:02:52.079Z,999.20
2019-05-26T07:03:52.062Z,999.21
2019-05-26T07:04:52.016Z,999.21
2019-05-26T07:05:52.018Z,999.18
2019-05-26T07:06:52.030Z,999.22
2019-05-26T07:07:52.021Z,999.20
2019-05-26T07:08:51.977Z,999.23
2019-05-26T07:09:51.997Z,999.27
2019-05-26T07:10:51.955Z,999.24
2019-05-26T07:11:59.700Z,999.31
2019-05-26T07:12:52.927Z,999.32
2019-05-26T07:13:51.938Z,999.28
2019-05-26T07:14:51.936Z,999.30
2019-05-26T07:15:51.901Z,999.31
2019-05-26T07:16:51.881Z,999.27
2019-05-26T07:17:51.891Z,999.23
2019-05-26T07:18:51.872Z,999.29
2019-05-26T07:19:51.866Z,999.27
2019-05-26T07:20:51.879Z,999.28
2019-05-26T07:21:51.839Z,999.34
2019-05-26T07:22:51.827Z,999.28
2019-05-26T07:23:51.808Z,999.20
2019-05-26T07:24:51.808Z,999.19
2019-05-26T07:25:51.797Z,999.25
2019-05-26T07:26:52.188Z,999.24
2019-05-26T07:27:51.802Z,999.28
2019-05-26T07:28:51.767Z,999.29
2019-05-26T07:29:51.760Z,999.32
2019-05-26T07:30:51.776Z,999.25
2019-05-26T07:31:51.760Z,999.29
2019-05-26T07:32:51.745Z,999.25
2019-05-26T07:33:51.711Z,999.25
2019-05-26T07:34:51.725Z,999.34
2019-05-26T07:35:51.688Z,999.31
2019-05-26T07:36:51.698Z,999.32
2019-05-26T07:37:51.679Z,999.34
2019-05-26T07:38:51.675Z,999.27
2019-05-26T07:39:51.639Z,999.23
2019-05-26T07:40:51.629Z,999.32
2019-05-26T07:42:08.617Z,999.34
2019-05-26T07:42:52.607Z,999.32
2019-05-26T07:43:51.614Z,999.29
2019-05-26T07:44:51.580Z,999.41
2019-05-26T07:45:51.574Z,999.29
2019-05-26T07:46:51.591Z,999.36
2019-05-26T07:47:51.559Z,999.30
2019-05-26T07:48:51.559Z,999.28
2019-05-26T07:49:51.538Z,999.32
2019-05-26T07:50:51.524Z,999.36
2019-05-26T07:51:51.515Z,999.33
2019-05-26T07:52:51.526Z,999.28
2019-05-26T07:53:51.513Z,999.33
2019-05-26T07:54:51.476Z,999.35
2019-05-26T07:55:51.470Z,999.28
2019-05-26T07:56:51.461Z,999.25
2019-05-26T07:57:51.468Z,999.20
2019-05-26T07:58:51.429Z,999.24
2019-05-26T07:59:51.491Z,999.27
2019-05-26T08:00:51.471Z,999.23
2019-05-26T08:01:51.398Z,999.26
2019-05-26T08:02:51.389Z,999.26
2019-05-26T08:03:51.482Z,999.28
2019-05-26T08:04:51.369Z,999.24
2019-05-26T08:05:51.363Z,999.25
2019-05-26T08:06:51.351Z,999.27
2019-05-26T08:07:51.328Z,999.25
2019-05-26T08:08:51.320Z,999.31
2019-05-26T08:09:51.368Z,999.23
2019-05-26T08:10:51.300Z,999.22
2019-05-26T08:11:51.301Z,999.22
2019-05-26T08:12:51.295Z,999.23
2019-05-26T08:13:51.292Z,999.25
2019-05-26T08:14:51.320Z,999.28
2019-05-26T08:15:51.253Z,999.31
2019-05-26T08:16:51.388Z,999.42
2019-05-26T08:17:51.319Z,999.34
2019-05-26T08:18:51.249Z,999.31
2019-05-26T08:19:51.260Z,999.35
2019-05-26T08:20:51.219Z,999.41
2019-05-26T08:21:54.402Z,999.45
2019-05-26T08:22:51.169Z,999.47
2019-05-26T08:23:51.170Z,999.57
2019-05-26T08:24:51.156Z,999.61
2019-05-26T08:25:51.224Z,999.61
2019-05-26T08:26:51.130Z,999.64
2019-05-26T08:27:51.160Z,999.73
2019-05-26T08:28:51.113Z,999.78
2019-05-26T08:29:51.159Z,999.67
2019-05-26T08:30:51.186Z,999.71
2019-05-26T08:31:51.098Z,999.75
2019-05-26T08:32:51.073Z,999.73
2019-05-26T08:33:51.059Z,999.67
2019-05-26T08:34:51.061Z,999.70
2019-05-26T08:35:51.055Z,999.74
2019-05-26T08:36:51.027Z,999.74
2019-05-26T08:37:51.019Z,999.66
2019-05-26T08:38:51.022Z,999.71
2019-05-26T08:39:51.004Z,999.74
2019-05-26T08:40:50.984Z,999.73
2019-05-26T08:41:50.991Z,999.72
2019-05-26T08:42:50.982Z,999.68
2019-05-26T08:43:50.962Z,999.53
2019-05-26T08:44:50.962Z,999.47
2019-05-26T08:45:50.932Z,999.61
2019-05-26T08:46:50.953Z,999.65
2019-05-26T08:47:50.909Z,999.60
2019-05-26T08:48:50.905Z,999.65
2019-05-26T08:49:50.903Z,999.62
2019-05-26T08:50:50.908Z,999.65
2019-05-26T08:51:50.881Z,999.60
2019-05-26T08:52:50.874Z,999.58
2019-05-26T08:53:50.860Z,999.66
2019-05-26T08:54:50.851Z,999.66
2019-05-26T08:55:50.833Z,999.68
2019-05-26T08:56:50.825Z,999.71
2019-05-26T08:57:50.822Z,999.70
2019-05-26T08:58:50.802Z,999.74
2019-05-26T08:59:50.794Z,999.70
2019-05-26T09:00:50.772Z,999.69
2019-05-26T09:01:50.770Z,999.74
2019-05-26T09:02:50.771Z,999.76
2019-05-26T09:03:50.752Z,999.73
2019-05-26T09:04:50.763Z,999.77
2019-05-26T09:05:50.728Z,999.81
2019-05-26T09:06:50.724Z,999.89
2019-05-26T09:07:50.725Z,999.73
2019-05-26T09:08:50.706Z,999.97
2019-05-26T09:09:50.680Z,999.47
2019-05-26T09:10:50.674Z,999.71
2019-05-26T09:11:50.688Z,999.66
2019-05-26T09:13:00.148Z,1000.01
2019-05-26T09:13:51.668Z,999.88
2019-05-26T09:14:50.655Z,999.55
2019-05-26T09:15:50.634Z,999.29
2019-05-26T09:16:50.624Z,999.32
2019-05-26T09:17:50.665Z,999.12
2019-05-26T09:18:50.589Z,999.08
2019-05-26T09:19:50.586Z,999.06
2019-05-26T09:20:50.575Z,999.05
2019-05-26T09:21:50.578Z,999.07
2019-05-26T09:22:50.558Z,999.04
2019-05-26T09:23:50.575Z,998.93
2019-05-26T09:24:50.534Z,998.96
2019-05-26T09:25:50.530Z,998.97
2019-05-26T09:26:50.517Z,998.87
2019-05-26T09:27:50.498Z,998.89
2019-05-26T09:28:50.500Z,998.88
2019-05-26T09:29:50.494Z,998.87
2019-05-26T09:30:50.479Z,998.80
2019-05-26T09:31:50.475Z,998.81
2019-05-26T09:32:50.460Z,998.87
2019-05-26T09:33:50.456Z,998.94
2019-05-26T09:34:50.469Z,998.88
2019-05-26T09:35:50.438Z,998.83
2019-05-26T09:36:50.418Z,998.88
2019-05-26T09:37:50.407Z,998.84
2019-05-26T09:38:50.390Z,998.79
2019-05-26T09:39:50.389Z,998.85
2019-05-26T09:40:50.380Z,998.83
2019-05-26T09:41:50.350Z,998.88
2019-05-26T09:42:50.350Z,998.83
2019-05-26T09:43:50.383Z,998.84
2019-05-26T09:44:50.329Z,998.80
2019-05-26T09:45:50.307Z,998.81
2019-05-26T09:46:50.299Z,998.81
2019-05-26T09:47:50.300Z,998.73
2019-05-26T09:48:50.279Z,998.80
2019-05-26T09:49:50.287Z,998.78
2019-05-26T09:50:50.310Z,998.80
2019-05-26T09:51:50.267Z,998.78
2019-05-26T09:52:50.248Z,998.84
2019-05-26T09:54:01.412Z,998.81
2019-05-26T09:54:51.209Z,998.84
2019-05-26T09:55:50.213Z,998.79
2019-05-26T09:56:50.199Z,998.77
2019-05-26T09:57:50.192Z,998.73
2019-05-26T09:58:50.168Z,998.73
2019-05-26T09:59:50.161Z,998.74
2019-05-26T10:00:50.171Z,998.71
2019-05-26T10:01:50.165Z,998.69
2019-05-26T10:02:50.129Z,998.72
2019-05-26T10:03:50.122Z,998.70
2019-05-26T10:04:50.113Z,998.71
2019-05-26T10:05:50.090Z,998.69
2019-05-26T10:06:50.112Z,998.63
2019-05-26T10:07:50.102Z,998.65
2019-05-26T10:08:50.061Z,998.64
2019-05-26T10:09:50.055Z,998.68
2019-05-26T10:10:50.062Z,998.71
2019-05-26T10:11:50.069Z,998.64
2019-05-26T10:12:50.022Z,998.65
2019-05-26T10:13:50.023Z,998.63
2019-05-26T10:14:50.023Z,998.66
2019-05-26T10:15:49.990Z,998.64
2019-05-26T10:16:49.978Z,998.66
2019-05-26T10:17:49.989Z,998.65
2019-05-26T10:18:49.961Z,998.60
2019-05-26T10:19:49.962Z,998.62
2019-05-26T10:20:49.934Z,998.58
2019-05-26T10:21:49.942Z,998.56
2019-05-26T10:22:49.911Z,998.53
2019-05-26T10:23:52.864Z,998.56
2019-05-26T10:24:49.922Z,998.57
2019-05-26T10:25:49.884Z,998.53
2019-05-26T10:26:49.894Z,998.54
2019-05-26T10:27:49.862Z,998.56
2019-05-26T10:28:49.851Z,998.60
2019-05-26T10:29:49.855Z,998.58
2019-05-26T10:30:49.837Z,998.57
2019-05-26T10:31:49.823Z,998.60
2019-05-26T10:32:49.807Z,998.64
2019-05-26T10:33:49.827Z,998.61
2019-05-26T10:34:49.785Z,998.65
2019-05-26T10:35:49.814Z,998.56
2019-05-26T10:36:49.779Z,998.64
2019-05-26T10:37:49.756Z,998.63
2019-05-26T10:38:49.749Z,998.68
2019-05-26T10:39:49.760Z,998.63
2019-05-26T10:40:49.727Z,998.66
2019-05-26T10:41:49.744Z,998.67
2019-05-26T10:42:49.700Z,998.58
2019-05-26T10:43:49.715Z,998.60
2019-05-26T10:44:49.696Z,998.58
2019-05-26T10:45:49.676Z,998.63
2019-05-26T10:46:49.655Z,998.63
2019-05-26T10:47:49.645Z,998.56
2019-05-26T10:48:49.641Z,998.58
2019-05-26T10:49:49.650Z,998.53
2019-05-26T10:50:49.625Z,998.59
2019-05-26T10:51:49.614Z,998.55
2019-05-26T10:52:49.598Z,998.57
2019-05-26T10:53:49.583Z,998.57
2019-05-26T10:54:49.578Z,998.61
2019-05-26T10:55:49.587Z,998.61
2019-05-26T10:56:49.585Z,998.56
2019-05-26T10:57:49.545Z,998.54
2019-05-26T10:58:49.548Z,998.58
2019-05-26T10:59:49.524Z,998.53
2019-05-26T11:00:49.516Z,998.53
2019-05-26T11:01:49.507Z,998.54
2019-05-26T11:02:49.485Z,998.55
2019-05-26T11:03:49.496Z,998.58
2019-05-26T11:04:49.457Z,998.51
2019-05-26T11:05:49.467Z,998.51
2019-05-26T11:06:49.503Z,998.53
2019-05-26T11:07:49.433Z,998.44
2019-05-26T11:08:49.427Z,998.46
2019-05-26T11:09:49.413Z,998.46
2019-05-26T11:10:49.419Z,998.42
2019-05-26T11:11:49.417Z,998.46
2019-05-26T11:12:49.374Z,998.45
2019-05-26T11:14:01.752Z,998.40
2019-05-26T11:14:50.355Z,998.45
2019-05-26T11:15:49.344Z,998.40
2019-05-26T11:16:49.339Z,998.41
2019-05-26T11:17:49.358Z,998.38
2019-05-26T11:18:49.319Z,998.43
2019-05-26T11:19:49.313Z,998.42
2019-05-26T11:20:49.296Z,998.47
2019-05-26T11:21:49.308Z,998.40
2019-05-26T11:22:49.317Z,998.37
2019-05-26T11:23:49.276Z,998.35
2019-05-26T11:24:49.241Z,998.37
2019-05-26T11:25:49.286Z,998.34
2019-05-26T11:26:49.226Z,998.38
2019-05-26T11:27:49.249Z,998.38
2019-05-26T11:28:49.248Z,998.34
2019-05-26T11:29:49.203Z,998.35
2019-05-26T11:30:49.194Z,998.37
2019-05-26T11:31:49.179Z,998.38
2019-05-26T11:32:49.186Z,998.34
2019-05-26T11:33:49.158Z,998.34
2019-05-26T11:35:01.029Z,998.33
2019-05-26T11:35:50.131Z,998.33
2019-05-26T11:36:49.138Z,998.37
2019-05-26T11:37:49.158Z,998.35
2019-05-26T11:38:49.116Z,998.32
2019-05-26T11:39:49.129Z,998.28
2019-05-26T11:40:49.113Z,998.29
2019-05-26T11:41:54.650Z,998.27
2019-05-26T11:42:50.197Z,998.21
2019-05-26T11:43:49.073Z,998.23
2019-05-26T11:44:49.052Z,998.29
2019-05-26T11:45:49.043Z,998.20
2019-05-26T11:46:49.019Z,998.22
2019-05-26T11:47:49.007Z,998.27
2019-05-26T11:48:49.012Z,998.14
2019-05-26T11:49:48.989Z,998.13
2019-05-26T11:50:48.974Z,998.22
2019-05-26T11:51:48.979Z,998.18
2019-05-26T11:52:48.966Z,998.19
2019-05-26T11:53:48.940Z,998.20
2019-05-26T11:54:48.982Z,998.16
2019-05-26T11:55:48.934Z,998.13
2019-05-26T11:56:48.913Z,998.18
2019-05-26T11:57:48.900Z,998.24
2019-05-26T11:58:48.897Z,998.20
2019-05-26T11:59:48.926Z,998.15
2019-05-26T12:00:48.890Z,998.16
2019-05-26T12:01:48.865Z,998.15
2019-05-26T12:02:48.858Z,998.07
2019-05-26T12:03:48.840Z,998.07
2019-05-26T12:04:48.832Z,998.10
2019-05-26T12:05:48.829Z,998.10
2019-05-26T12:06:48.812Z,998.04
2019-05-26T12:07:48.790Z,998.03
2019-05-26T12:08:48.795Z,998.04
2019-05-26T12:09:48.780Z,998.13
2019-05-26T12:10:48.779Z,998.11
2019-05-26T12:11:48.751Z,998.09
2019-05-26T12:12:48.758Z,998.06
2019-05-26T12:13:48.729Z,998.05
2019-05-26T12:14:48.731Z,998.07
2019-05-26T12:15:48.733Z,998.00
2019-05-26T12:16:48.705Z,998.06
2019-05-26T12:17:48.705Z,998.04
2019-05-26T12:18:48.750Z,998.03
2019-05-26T12:19:48.684Z,997.99
2019-05-26T12:20:48.662Z,998.02
2019-05-26T12:21:48.694Z,997.96
2019-05-26T12:22:48.638Z,997.97
2019-05-26T12:23:48.631Z,997.92
2019-05-26T12:24:48.643Z,997.91
2019-05-26T12:25:48.612Z,997.90
2019-05-26T12:26:48.602Z,997.89